EST,Max TemperatureF,Mean TemperatureF,Min TemperatureF,Max Dew PointF,MeanDew PointF,Min DewpointF,Max Humidity, Mean Humidity, Min Humidity, Max Sea Level PressureIn, Mean Sea Level PressureIn, Min Sea Level PressureIn, Max VisibilityMiles, Mean VisibilityMiles, Min VisibilityMiles, Max Wind SpeedMPH, Mean Wind SpeedMPH, Max Gust SpeedMPH,PrecipitationIn, CloudCover, Events, WindDirDegrees
2013-1-1,44,40,37,30,29,25,70,60,53,30.02,29.96,29.88,10,10,10,12,8,16,0.00,5,,287
2013-1-2,37,32,28,25,17,14,60,53,44,30.22,30.10,29.99,10,10,10,13,7,21,0.00,2,,340
2013-1-3,35,30,26,23,17,14,65,57,44,30.24,30.19,30.14,10,10,10,13,7,18,0.00,0,,297
2013-1-4,39,37,35,25,22,19,65,55,48,30.19,30.14,30.07,10,10,10,18,12,28,0.00,1,,275
2013-1-5,37,32,28,30,22,19,81,60,48,30.38,30.27,30.13,10,10,10,16,10,23,0.00,0,,281
2013-1-6,46,40,33,34,30,27,81,65,46,30.25,30.11,30.03,10,10,10,12,6,18,0.00,3,,239
2013-1-7,46,37,28,30,28,25,86,65,46,30.45,30.32,30.11,10,10,10,13,7,21,0.03,1,,304
2013-1-8,51,38,26,36,31,23,93,71,44,30.46,30.41,30.38,10,10,10,13,3,17,0.00,4,,215
2013-1-9,57,46,35,46,38,30,87,69,54,30.40,30.32,30.20,10,10,10,16,3,20,0.00,4,,224
2013-1-10,50,42,35,34,29,27,75,57,46,30.55,30.48,30.33,10,10,10,15,9,21,0.00,0,,306
2013-1-11,51,42,33,48,38,27,93,82,70,30.51,30.32,30.08,10,9,2,18,4,24,0.11,5,,100
2013-1-12,50,46,42,46,43,39,93,92,87,30.17,30.13,30.08,10,3,0,12,6,,0.00,7,,299
2013-1-13,51,46,42,50,44,39,94,90,87,30.17,30.10,30.02,10,2,0,15,8,18,0.00,8,,156
2013-1-14,59,52,46,55,49,41,94,88,76,30.24,30.11,29.98,10,8,0,12,7,17,0.13,5,,277
2013-1-15,46,40,35,41,36,32,93,89,81,30.33,30.25,30.14,10,8,2,15,8,21,0.62,8,,23
2013-1-16,42,40,37,41,37,34,93,88,81,30.15,29.99,29.86,10,8,3,22,8,33,0.46,8,,308
2013-1-17,42,38,33,39,36,30,93,82,65,30.12,30.06,29.98,10,9,2,12,4,,0.25,7,,286
2013-1-18,37,30,24,32,21,14,87,62,44,30.52,30.35,30.04,10,10,10,17,5,26,0.02,2,,323
2013-1-19,53,42,30,30,25,18,65,52,33,30.48,30.27,30.01,10,10,10,20,12,28,0.00,0,,202
2013-1-20,55,46,37,34,28,18,61,49,36,30.06,29.91,29.79,10,10,10,20,15,28,0.00,0,,255
2013-1-21,37,32,26,27,18,10,86,54,35,30.14,29.99,29.78,10,9,0,16,7,30,0.00,2,Thunderstorm,21
2013-1-22,30,24,17,19,3,-2,64,44,36,30.27,30.11,29.89,10,10,10,21,13,33,0.00,3,,300
2013-1-23,23,20,17,3,0,-2,49,43,36,30.33,30.26,30.19,10,10,10,16,11,23,0.00,4,,311
2013-1-24,24,20,17,9,2,-2,68,43,31,30.48,30.28,30.11,10,10,6,16,10,28,0.00,3,,346
2013-1-25,24,20,17,19,8,0,86,56,39,30.48,30.32,30.07,10,9,1,14,7,18,0.00,3,,289
2013-1-26,28,24,19,16,14,10,80,63,51,30.42,30.21,30.07,10,10,10,16,9,23,0.00,4,,320
2013-1-27,33,26,19,18,14,10,80,61,48,30.59,30.52,30.43,10,10,10,13,4,16,0.00,0,,314
2013-1-28,42,32,21,37,29,16,87,80,70,30.53,30.29,30.05,10,8,1,15,5,18,0.02,5,,216
2013-1-29,57,45,33,48,40,30,93,81,67,30.16,30.09,30.05,10,8,3,17,6,23,0.00,3,,200
2013-1-30,59,52,46,54,48,43,93,87,77,30.06,29.79,29.45,10,7,2,29,15,46,0.00,2,,178
2013-1-31,57,45,33,54,26,10,94,54,38,29.92,29.57,29.23,10,9,3,37,22,51,0.20,3,,263